sensor_id;sensor_type;location;lat;lon;timestamp;P1;durP1;ratioP1;P2;durP2;ratioP2
16073;SDS011;8141;52.664;5.074;2023-06-14T00:01:45;2.30;;;1.80;;
16073;SDS011;8141;52.664;5.074;2023-06-14T00:04:11;3.00;;;2.03;;
16073;SDS011;8141;52.664;5.074;2023-06-14T00:06:37;2.13;;;1.50;;
16073;SDS011;8141;52.664;5.074;2023-06-14T00:09:04;2.00;;;1.80;;
16073;SDS011;8141;52.664;5.074;2023-06-14T00:11:30;1.70;;;1.57;;
16073;SDS011;8141;52.664;5.074;2023-06-14T00:13:57;2.33;;;1.93;;
16073;SDS011;8141;52.664;5.074;2023-06-14T00:16:23;3.63;;;1.60;;
16073;SDS011;8141;52.664;5.074;2023-06-14T00:18:49;2.20;;;2.00;;
16073;SDS011;8141;52.664;5.074;2023-06-14T00:21:16;1.83;;;1.60;;
16073;SDS011;8141;52.664;5.074;2023-06-14T00:23:43;2.97;;;1.80;;
16073;SDS011;8141;52.664;5.074;2023-06-14T00:26:08;1.33;;;1.20;;
16073;SDS011;8141;52.664;5.074;2023-06-14T00:28:34;1.80;;;1.50;;
16073;SDS011;8141;52.664;5.074;2023-06-14T00:31:00;2.23;;;1.50;;
16073;SDS011;8141;52.664;5.074;2023-06-14T00:33:26;3.57;;;1.90;;
16073;SDS011;8141;52.664;5.074;2023-06-14T00:35:51;2.47;;;1.80;;
16073;SDS011;8141;52.664;5.074;2023-06-14T00:38:19;2.07;;;1.70;;
16073;SDS011;8141;52.664;5.074;2023-06-14T00:40:46;2.50;;;1.43;;
16073;SDS011;8141;52.664;5.074;2023-06-14T00:43:12;2.33;;;1.70;;
16073;SDS011;8141;52.664;5.074;2023-06-14T00:45:38;2.33;;;1.50;;
16073;SDS011;8141;52.664;5.074;2023-06-14T00:48:04;1.90;;;1.57;;
16073;SDS011;8141;52.664;5.074;2023-06-14T00:50:32;1.87;;;1.60;;
16073;SDS011;8141;52.664;5.074;2023-06-14T00:52:58;2.30;;;1.87;;
16073;SDS011;8141;52.664;5.074;2023-06-14T00:55:26;1.67;;;1.30;;
16073;SDS011;8141;52.664;5.074;2023-06-14T00:57:53;1.57;;;1.40;;
16073;SDS011;8141;52.664;5.074;2023-06-14T01:00:20;3.60;;;1.70;;
16073;SDS011;8141;52.664;5.074;2023-06-14T01:02:47;2.77;;;1.53;;
16073;SDS011;8141;52.664;5.074;2023-06-14T01:05:14;1.47;;;1.30;;
16073;SDS011;8141;52.664;5.074;2023-06-14T01:11:22;1.63;;;1.40;;
16073;SDS011;8141;52.664;5.074;2023-06-14T01:14:06;2.73;;;1.43;;
16073;SDS011;8141;52.664;5.074;2023-06-14T01:16:35;4.03;;;1.70;;
16073;SDS011;8141;52.664;5.074;2023-06-14T01:19:04;2.33;;;1.40;;
16073;SDS011;8141;52.664;5.074;2023-06-14T01:21:31;1.60;;;1.50;;
16073;SDS011;8141;52.664;5.074;2023-06-14T01:24:06;2.17;;;1.50;;
16073;SDS011;8141;52.664;5.074;2023-06-14T01:26:34;1.73;;;1.50;;
16073;SDS011;8141;52.664;5.074;2023-06-14T01:29:02;2.67;;;1.60;;
16073;SDS011;8141;52.664;5.074;2023-06-14T01:31:29;1.53;;;1.43;;
16073;SDS011;8141;52.664;5.074;2023-06-14T01:34:04;1.65;;;1.50;;
16073;SDS011;8141;52.664;5.074;2023-06-14T01:36:30;4.43;;;1.60;;
16073;SDS011;8141;52.664;5.074;2023-06-14T01:38:56;2.10;;;1.40;;
16073;SDS011;8141;52.664;5.074;2023-06-14T01:41:24;2.33;;;1.73;;
16073;SDS011;8141;52.664;5.074;2023-06-14T01:43:51;2.00;;;1.40;;
16073;SDS011;8141;52.664;5.074;2023-06-14T01:46:18;2.43;;;1.70;;
16073;SDS011;8141;52.664;5.074;2023-06-14T01:48:45;1.97;;;1.67;;
16073;SDS011;8141;52.664;5.074;2023-06-14T01:51:11;2.07;;;1.33;;
16073;SDS011;8141;52.664;5.074;2023-06-14T01:53:36;1.60;;;1.50;;
16073;SDS011;8141;52.664;5.074;2023-06-14T01:56:02;3.17;;;1.30;;
16073;SDS011;8141;52.664;5.074;2023-06-14T01:58:28;2.37;;;1.50;;
16073;SDS011;8141;52.664;5.074;2023-06-14T02:00:54;2.40;;;1.20;;
16073;SDS011;8141;52.664;5.074;2023-06-14T02:03:23;1.87;;;1.30;;
16073;SDS011;8141;52.664;5.074;2023-06-14T02:05:49;2.13;;;1.20;;
16073;SDS011;8141;52.664;5.074;2023-06-14T02:08:15;1.90;;;1.43;;
16073;SDS011;8141;52.664;5.074;2023-06-14T02:10:40;2.67;;;1.53;;
16073;SDS011;8141;52.664;5.074;2023-06-14T02:13:06;3.73;;;1.83;;
16073;SDS011;8141;52.664;5.074;2023-06-14T02:15:32;1.30;;;1.20;;
16073;SDS011;8141;52.664;5.074;2023-06-14T02:18:03;1.67;;;1.30;;
16073;SDS011;8141;52.664;5.074;2023-06-14T02:20:29;2.53;;;1.60;;
16073;SDS011;8141;52.664;5.074;2023-06-14T02:22:56;4.83;;;1.40;;
16073;SDS011;8141;52.664;5.074;2023-06-14T02:25:22;2.07;;;1.40;;
16073;SDS011;8141;52.664;5.074;2023-06-14T02:27:48;1.87;;;1.37;;
16073;SDS011;8141;52.664;5.074;2023-06-14T02:30:14;2.07;;;1.37;;
16073;SDS011;8141;52.664;5.074;2023-06-14T02:32:40;3.30;;;1.33;;
16073;SDS011;8141;52.664;5.074;2023-06-14T02:35:07;1.57;;;1.47;;
16073;SDS011;8141;52.664;5.074;2023-06-14T02:37:33;1.57;;;1.47;;
16073;SDS011;8141;52.664;5.074;2023-06-14T02:40:00;2.60;;;1.40;;
16073;SDS011;8141;52.664;5.074;2023-06-14T02:42:25;1.27;;;1.17;;
16073;SDS011;8141;52.664;5.074;2023-06-14T02:44:51;1.60;;;1.37;;
16073;SDS011;8141;52.664;5.074;2023-06-14T02:47:17;1.37;;;1.20;;
16073;SDS011;8141;52.664;5.074;2023-06-14T02:49:44;1.67;;;1.40;;
16073;SDS011;8141;52.664;5.074;2023-06-14T02:52:11;1.77;;;1.20;;
16073;SDS011;8141;52.664;5.074;2023-06-14T02:54:37;1.53;;;1.20;;
16073;SDS011;8141;52.664;5.074;2023-06-14T02:57:03;1.50;;;1.40;;
16073;SDS011;8141;52.664;5.074;2023-06-14T02:59:29;3.20;;;1.40;;
16073;SDS011;8141;52.664;5.074;2023-06-14T03:01:55;1.60;;;1.13;;
16073;SDS011;8141;52.664;5.074;2023-06-14T03:04:20;1.47;;;1.37;;
16073;SDS011;8141;52.664;5.074;2023-06-14T03:06:46;1.50;;;1.20;;
16073;SDS011;8141;52.664;5.074;2023-06-14T03:09:15;2.30;;;1.33;;
16073;SDS011;8141;52.664;5.074;2023-06-14T03:11:41;1.03;;;0.93;;
16073;SDS011;8141;52.664;5.074;2023-06-14T03:14:07;1.50;;;1.33;;
16073;SDS011;8141;52.664;5.074;2023-06-14T03:16:33;1.63;;;1.40;;
16073;SDS011;8141;52.664;5.074;2023-06-14T03:18:59;1.20;;;1.10;;
16073;SDS011;8141;52.664;5.074;2023-06-14T03:21:25;1.27;;;1.13;;
16073;SDS011;8141;52.664;5.074;2023-06-14T03:23:51;1.37;;;1.27;;
16073;SDS011;8141;52.664;5.074;2023-06-14T03:26:18;1.20;;;1.00;;
16073;SDS011;8141;52.664;5.074;2023-06-14T03:28:44;1.07;;;0.97;;
16073;SDS011;8141;52.664;5.074;2023-06-14T03:31:11;3.17;;;1.20;;
16073;SDS011;8141;52.664;5.074;2023-06-14T03:33:38;1.63;;;1.10;;
16073;SDS011;8141;52.664;5.074;2023-06-14T03:36:04;2.10;;;1.10;;
16073;SDS011;8141;52.664;5.074;2023-06-14T03:38:31;2.77;;;1.50;;
16073;SDS011;8141;52.664;5.074;2023-06-14T03:40:57;1.97;;;1.40;;
16073;SDS011;8141;52.664;5.074;2023-06-14T03:43:23;1.40;;;1.20;;
16073;SDS011;8141;52.664;5.074;2023-06-14T03:45:49;1.73;;;1.27;;
16073;SDS011;8141;52.664;5.074;2023-06-14T03:48:15;1.93;;;1.07;;
16073;SDS011;8141;52.664;5.074;2023-06-14T03:50:41;1.57;;;1.30;;
16073;SDS011;8141;52.664;5.074;2023-06-14T03:53:08;1.40;;;1.30;;
16073;SDS011;8141;52.664;5.074;2023-06-14T03:55:34;1.00;;;0.90;;
16073;SDS011;8141;52.664;5.074;2023-06-14T03:58:00;1.90;;;1.40;;
16073;SDS011;8141;52.664;5.074;2023-06-14T04:00:25;1.70;;;1.60;;
16073;SDS011;8141;52.664;5.074;2023-06-14T04:02:52;1.20;;;1.00;;
16073;SDS011;8141;52.664;5.074;2023-06-14T04:05:18;1.50;;;1.30;;
16073;SDS011;8141;52.664;5.074;2023-06-14T04:07:44;2.87;;;1.67;;
16073;SDS011;8141;52.664;5.074;2023-06-14T04:10:13;3.60;;;1.30;;
16073;SDS011;8141;52.664;5.074;2023-06-14T04:12:40;1.77;;;1.53;;
16073;SDS011;8141;52.664;5.074;2023-06-14T04:15:07;1.53;;;1.40;;
16073;SDS011;8141;52.664;5.074;2023-06-14T04:17:34;1.03;;;1.00;;
16073;SDS011;8141;52.664;5.074;2023-06-14T04:20:02;1.80;;;1.10;;
16073;SDS011;8141;52.664;5.074;2023-06-14T04:22:30;1.77;;;1.20;;
16073;SDS011;8141;52.664;5.074;2023-06-14T04:24:56;1.53;;;1.20;;
16073;SDS011;8141;52.664;5.074;2023-06-14T04:27:23;2.00;;;1.13;;
16073;SDS011;8141;52.664;5.074;2023-06-14T04:29:54;1.87;;;1.43;;
16073;SDS011;8141;52.664;5.074;2023-06-14T04:32:24;2.27;;;1.40;;
16073;SDS011;8141;52.664;5.074;2023-06-14T04:34:53;2.17;;;1.43;;
16073;SDS011;8141;52.664;5.074;2023-06-14T04:37:19;2.17;;;0.87;;
16073;SDS011;8141;52.664;5.074;2023-06-14T04:39:46;1.50;;;1.07;;
16073;SDS011;8141;52.664;5.074;2023-06-14T04:42:13;1.27;;;1.10;;
16073;SDS011;8141;52.664;5.074;2023-06-14T04:44:40;1.90;;;1.33;;
16073;SDS011;8141;52.664;5.074;2023-06-14T04:47:08;1.27;;;1.13;;
16073;SDS011;8141;52.664;5.074;2023-06-14T04:49:36;1.53;;;1.13;;
16073;SDS011;8141;52.664;5.074;2023-06-14T04:52:02;2.07;;;1.30;;
16073;SDS011;8141;52.664;5.074;2023-06-14T04:54:28;2.33;;;1.40;;
16073;SDS011;8141;52.664;5.074;2023-06-14T04:56:56;2.43;;;1.13;;
16073;SDS011;8141;52.664;5.074;2023-06-14T04:59:22;1.50;;;1.27;;
16073;SDS011;8141;52.664;5.074;2023-06-14T05:01:48;1.20;;;1.10;;
16073;SDS011;8141;52.664;5.074;2023-06-14T05:04:17;1.50;;;1.13;;
16073;SDS011;8141;52.664;5.074;2023-06-14T05:06:44;1.53;;;1.30;;
16073;SDS011;8141;52.664;5.074;2023-06-14T05:09:13;2.13;;;1.07;;
16073;SDS011;8141;52.664;5.074;2023-06-14T05:11:41;1.93;;;1.20;;
16073;SDS011;8141;52.664;5.074;2023-06-14T05:14:09;1.77;;;1.20;;
16073;SDS011;8141;52.664;5.074;2023-06-14T05:16:39;1.03;;;0.90;;
16073;SDS011;8141;52.664;5.074;2023-06-14T05:19:05;2.23;;;1.33;;
16073;SDS011;8141;52.664;5.074;2023-06-14T05:21:32;2.20;;;1.30;;
16073;SDS011;8141;52.664;5.074;2023-06-14T05:23:59;2.90;;;1.47;;
16073;SDS011;8141;52.664;5.074;2023-06-14T05:26:26;3.43;;;1.23;;
16073;SDS011;8141;52.664;5.074;2023-06-14T05:28:55;0.97;;;0.90;;
16073;SDS011;8141;52.664;5.074;2023-06-14T05:31:22;2.57;;;1.40;;
16073;SDS011;8141;52.664;5.074;2023-06-14T05:33:50;1.73;;;1.20;;
16073;SDS011;8141;52.664;5.074;2023-06-14T05:36:17;1.40;;;1.20;;
16073;SDS011;8141;52.664;5.074;2023-06-14T05:38:43;2.60;;;1.17;;
16073;SDS011;8141;52.664;5.074;2023-06-14T05:41:10;1.23;;;1.03;;
16073;SDS011;8141;52.664;5.074;2023-06-14T05:43:36;6.87;;;1.97;;
16073;SDS011;8141;52.664;5.074;2023-06-14T05:46:02;9.90;;;1.87;;
16073;SDS011;8141;52.664;5.074;2023-06-14T05:48:28;5.77;;;1.77;;
16073;SDS011;8141;52.664;5.074;2023-06-14T05:50:55;8.57;;;2.10;;
16073;SDS011;8141;52.664;5.074;2023-06-14T05:53:21;5.83;;;1.63;;
16073;SDS011;8141;52.664;5.074;2023-06-14T05:55:46;4.63;;;1.93;;
16073;SDS011;8141;52.664;5.074;2023-06-14T05:58:12;5.90;;;2.00;;
16073;SDS011;8141;52.664;5.074;2023-06-14T06:00:38;4.73;;;2.00;;
16073;SDS011;8141;52.664;5.074;2023-06-14T06:03:05;7.40;;;1.77;;
16073;SDS011;8141;52.664;5.074;2023-06-14T06:05:33;6.87;;;2.27;;
16073;SDS011;8141;52.664;5.074;2023-06-14T06:07:58;3.80;;;2.10;;
16073;SDS011;8141;52.664;5.074;2023-06-14T06:10:25;3.03;;;1.90;;
16073;SDS011;8141;52.664;5.074;2023-06-14T06:12:51;5.37;;;1.83;;
16073;SDS011;8141;52.664;5.074;2023-06-14T06:15:19;9.43;;;2.47;;
16073;SDS011;8141;52.664;5.074;2023-06-14T06:17:45;2.77;;;1.80;;
16073;SDS011;8141;52.664;5.074;2023-06-14T06:20:11;5.10;;;2.40;;
16073;SDS011;8141;52.664;5.074;2023-06-14T06:22:37;3.20;;;2.10;;
16073;SDS011;8141;52.664;5.074;2023-06-14T06:25:04;3.93;;;1.90;;
16073;SDS011;8141;52.664;5.074;2023-06-14T06:27:31;4.67;;;2.20;;
16073;SDS011;8141;52.664;5.074;2023-06-14T06:29:57;5.50;;;2.10;;
16073;SDS011;8141;52.664;5.074;2023-06-14T06:32:23;4.00;;;2.00;;
16073;SDS011;8141;52.664;5.074;2023-06-14T06:34:48;4.37;;;2.40;;
16073;SDS011;8141;52.664;5.074;2023-06-14T06:37:15;5.70;;;2.17;;
16073;SDS011;8141;52.664;5.074;2023-06-14T06:39:40;2.53;;;1.80;;
16073;SDS011;8141;52.664;5.074;2023-06-14T06:42:06;4.97;;;2.33;;
16073;SDS011;8141;52.664;5.074;2023-06-14T06:44:32;4.87;;;2.30;;
16073;SDS011;8141;52.664;5.074;2023-06-14T06:46:58;5.53;;;2.03;;
16073;SDS011;8141;52.664;5.074;2023-06-14T06:49:24;5.77;;;2.00;;
16073;SDS011;8141;52.664;5.074;2023-06-14T06:52:03;4.97;;;2.33;;
16073;SDS011;8141;52.664;5.074;2023-06-14T06:54:32;3.30;;;2.00;;
16073;SDS011;8141;52.664;5.074;2023-06-14T06:56:58;3.70;;;2.07;;
16073;SDS011;8141;52.664;5.074;2023-06-14T06:59:26;8.60;;;2.30;;
16073;SDS011;8141;52.664;5.074;2023-06-14T07:01:52;4.00;;;2.40;;
16073;SDS011;8141;52.664;5.074;2023-06-14T07:04:18;7.93;;;2.10;;
16073;SDS011;8141;52.664;5.074;2023-06-14T07:06:44;7.47;;;2.47;;
16073;SDS011;8141;52.664;5.074;2023-06-14T07:09:11;5.90;;;2.33;;
16073;SDS011;8141;52.664;5.074;2023-06-14T07:11:39;6.07;;;2.43;;
16073;SDS011;8141;52.664;5.074;2023-06-14T07:14:05;5.13;;;2.40;;
16073;SDS011;8141;52.664;5.074;2023-06-14T07:16:31;4.47;;;2.10;;
16073;SDS011;8141;52.664;5.074;2023-06-14T07:18:57;7.13;;;2.43;;
16073;SDS011;8141;52.664;5.074;2023-06-14T07:21:23;4.07;;;1.87;;
16073;SDS011;8141;52.664;5.074;2023-06-14T07:23:51;6.53;;;2.60;;
16073;SDS011;8141;52.664;5.074;2023-06-14T07:26:18;6.67;;;2.30;;
16073;SDS011;8141;52.664;5.074;2023-06-14T07:28:43;6.33;;;2.40;;
16073;SDS011;8141;52.664;5.074;2023-06-14T07:31:13;7.27;;;2.20;;
16073;SDS011;8141;52.664;5.074;2023-06-14T07:33:44;5.43;;;2.30;;
16073;SDS011;8141;52.664;5.074;2023-06-14T07:36:10;4.97;;;2.37;;
16073;SDS011;8141;52.664;5.074;2023-06-14T07:38:35;6.33;;;2.83;;
16073;SDS011;8141;52.664;5.074;2023-06-14T07:41:01;6.03;;;2.33;;
16073;SDS011;8141;52.664;5.074;2023-06-14T07:43:27;4.77;;;2.50;;
16073;SDS011;8141;52.664;5.074;2023-06-14T07:45:54;7.27;;;2.23;;
16073;SDS011;8141;52.664;5.074;2023-06-14T07:48:20;5.20;;;2.20;;
16073;SDS011;8141;52.664;5.074;2023-06-14T07:50:46;4.17;;;2.13;;
16073;SDS011;8141;52.664;5.074;2023-06-14T07:53:12;3.83;;;2.10;;
16073;SDS011;8141;52.664;5.074;2023-06-14T07:55:38;6.20;;;2.30;;
16073;SDS011;8141;52.664;5.074;2023-06-14T07:58:04;6.10;;;2.60;;
16073;SDS011;8141;52.664;5.074;2023-06-14T08:00:31;4.20;;;2.37;;
16073;SDS011;8141;52.664;5.074;2023-06-14T08:02:57;5.97;;;2.83;;
16073;SDS011;8141;52.664;5.074;2023-06-14T08:05:24;3.97;;;2.27;;
16073;SDS011;8141;52.664;5.074;2023-06-14T08:07:51;2.87;;;2.47;;
16073;SDS011;8141;52.664;5.074;2023-06-14T08:10:16;2.90;;;2.60;;
16073;SDS011;8141;52.664;5.074;2023-06-14T08:12:42;4.60;;;2.30;;
16073;SDS011;8141;52.664;5.074;2023-06-14T08:15:08;4.17;;;2.57;;
16073;SDS011;8141;52.664;5.074;2023-06-14T08:17:35;3.43;;;2.40;;
16073;SDS011;8141;52.664;5.074;2023-06-14T08:20:01;6.87;;;2.40;;
16073;SDS011;8141;52.664;5.074;2023-06-14T08:22:29;3.40;;;2.03;;
16073;SDS011;8141;52.664;5.074;2023-06-14T08:24:59;2.83;;;1.80;;
16073;SDS011;8141;52.664;5.074;2023-06-14T08:27:26;3.53;;;2.57;;
16073;SDS011;8141;52.664;5.074;2023-06-14T08:29:52;8.73;;;2.60;;
16073;SDS011;8141;52.664;5.074;2023-06-14T08:32:18;4.70;;;2.30;;
16073;SDS011;8141;52.664;5.074;2023-06-14T08:34:44;5.90;;;2.47;;
16073;SDS011;8141;52.664;5.074;2023-06-14T08:37:10;7.17;;;2.50;;
16073;SDS011;8141;52.664;5.074;2023-06-14T08:39:36;3.40;;;2.17;;
16073;SDS011;8141;52.664;5.074;2023-06-14T08:42:02;5.97;;;2.37;;
16073;SDS011;8141;52.664;5.074;2023-06-14T08:44:29;8.57;;;2.30;;
16073;SDS011;8141;52.664;5.074;2023-06-14T08:46:55;3.73;;;2.00;;
16073;SDS011;8141;52.664;5.074;2023-06-14T08:49:24;2.00;;;1.80;;
16073;SDS011;8141;52.664;5.074;2023-06-14T08:51:57;3.40;;;1.90;;
16073;SDS011;8141;52.664;5.074;2023-06-14T08:54:28;4.73;;;2.50;;
16073;SDS011;8141;52.664;5.074;2023-06-14T08:57:00;3.60;;;2.03;;
16073;SDS011;8141;52.664;5.074;2023-06-14T08:59:29;5.47;;;2.00;;
16073;SDS011;8141;52.664;5.074;2023-06-14T09:01:59;4.30;;;2.10;;
16073;SDS011;8141;52.664;5.074;2023-06-14T09:04:25;3.10;;;2.00;;
16073;SDS011;8141;52.664;5.074;2023-06-14T09:06:54;5.13;;;2.20;;
16073;SDS011;8141;52.664;5.074;2023-06-14T09:09:23;4.97;;;1.90;;
16073;SDS011;8141;52.664;5.074;2023-06-14T09:11:50;3.13;;;1.90;;
16073;SDS011;8141;52.664;5.074;2023-06-14T09:14:21;2.00;;;1.70;;
16073;SDS011;8141;52.664;5.074;2023-06-14T09:16:52;5.13;;;1.77;;
16073;SDS011;8141;52.664;5.074;2023-06-14T09:19:25;3.53;;;1.80;;
16073;SDS011;8141;52.664;5.074;2023-06-14T09:21:51;2.70;;;1.57;;
16073;SDS011;8141;52.664;5.074;2023-06-14T09:24:18;2.17;;;1.77;;
16073;SDS011;8141;52.664;5.074;2023-06-14T09:26:47;4.13;;;1.60;;
16073;SDS011;8141;52.664;5.074;2023-06-14T09:29:13;4.67;;;2.10;;
16073;SDS011;8141;52.664;5.074;2023-06-14T09:31:42;3.50;;;1.30;;
16073;SDS011;8141;52.664;5.074;2023-06-14T09:34:08;1.77;;;1.53;;
16073;SDS011;8141;52.664;5.074;2023-06-14T09:36:34;4.03;;;1.50;;
16073;SDS011;8141;52.664;5.074;2023-06-14T09:39:01;1.60;;;1.10;;
16073;SDS011;8141;52.664;5.074;2023-06-14T09:41:32;4.33;;;1.53;;
16073;SDS011;8141;52.664;5.074;2023-06-14T09:44:05;4.67;;;1.83;;
16073;SDS011;8141;52.664;5.074;2023-06-14T09:46:32;4.20;;;1.60;;
16073;SDS011;8141;52.664;5.074;2023-06-14T09:48:59;4.10;;;1.40;;
16073;SDS011;8141;52.664;5.074;2023-06-14T09:51:26;5.60;;;1.70;;
16073;SDS011;8141;52.664;5.074;2023-06-14T09:53:55;3.37;;;1.57;;
16073;SDS011;8141;52.664;5.074;2023-06-14T09:56:30;4.57;;;1.77;;
16073;SDS011;8141;52.664;5.074;2023-06-14T09:59:01;2.45;;;1.58;;
16073;SDS011;8141;52.664;5.074;2023-06-14T10:01:31;4.90;;;1.93;;
16073;SDS011;8141;52.664;5.074;2023-06-14T10:04:08;2.20;;;1.90;;
16073;SDS011;8141;52.664;5.074;2023-06-14T10:09:09;2.77;;;1.70;;
16073;SDS011;8141;52.664;5.074;2023-06-14T10:11:35;3.80;;;1.80;;
16073;SDS011;8141;52.664;5.074;2023-06-14T10:14:06;2.33;;;1.80;;
16073;SDS011;8141;52.664;5.074;2023-06-14T10:19:35;5.83;;;1.90;;
16073;SDS011;8141;52.664;5.074;2023-06-14T10:22:39;2.93;;;1.90;;
16073;SDS011;8141;52.664;5.074;2023-06-14T10:25:28;4.30;;;2.13;;
16073;SDS011;8141;52.664;5.074;2023-06-14T10:33:41;3.00;;;2.10;;
16073;SDS011;8141;52.664;5.074;2023-06-14T10:38:46;1.93;;;1.60;;
16073;SDS011;8141;52.664;5.074;2023-06-14T10:41:42;2.03;;;1.43;;
16073;SDS011;8141;52.664;5.074;2023-06-14T10:49:18;4.77;;;1.67;;
16073;SDS011;8141;52.664;5.074;2023-06-14T10:51:46;2.87;;;1.70;;
16073;SDS011;8141;52.664;5.074;2023-06-14T10:54:16;2.10;;;1.67;;
16073;SDS011;8141;52.664;5.074;2023-06-14T10:56:54;3.40;;;1.70;;
16073;SDS011;8141;52.664;5.074;2023-06-14T10:59:20;4.15;;;1.92;;
16073;SDS011;8141;52.664;5.074;2023-06-14T11:04:15;4.30;;;1.83;;
16073;SDS011;8141;52.664;5.074;2023-06-14T11:11:57;4.20;;;1.90;;
16073;SDS011;8141;52.664;5.074;2023-06-14T11:14:24;2.50;;;1.67;;
16073;SDS011;8141;52.664;5.074;2023-06-14T11:16:50;2.57;;;1.87;;
16073;SDS011;8141;52.664;5.074;2023-06-14T11:19:16;3.00;;;1.70;;
16073;SDS011;8141;52.664;5.074;2023-06-14T11:21:47;3.47;;;1.67;;
16073;SDS011;8141;52.664;5.074;2023-06-14T11:24:13;2.63;;;1.70;;
16073;SDS011;8141;52.664;5.074;2023-06-14T11:26:40;2.57;;;1.50;;
16073;SDS011;8141;52.664;5.074;2023-06-14T11:29:06;2.83;;;1.70;;
16073;SDS011;8141;52.664;5.074;2023-06-14T11:31:32;7.93;;;1.87;;
16073;SDS011;8141;52.664;5.074;2023-06-14T11:33:58;5.13;;;1.77;;
16073;SDS011;8141;52.664;5.074;2023-06-14T11:36:28;3.17;;;1.70;;
16073;SDS011;8141;52.664;5.074;2023-06-14T11:38:59;2.37;;;1.63;;
16073;SDS011;8141;52.664;5.074;2023-06-14T11:41:37;2.75;;;1.83;;
16073;SDS011;8141;52.664;5.074;2023-06-14T11:44:05;2.57;;;1.60;;
16073;SDS011;8141;52.664;5.074;2023-06-14T11:46:32;3.50;;;1.83;;
16073;SDS011;8141;52.664;5.074;2023-06-14T11:48:58;7.37;;;1.80;;
16073;SDS011;8141;52.664;5.074;2023-06-14T11:51:27;5.17;;;2.07;;
16073;SDS011;8141;52.664;5.074;2023-06-14T11:54:03;2.75;;;1.40;;
16073;SDS011;8141;52.664;5.074;2023-06-14T11:56:31;4.53;;;1.97;;
16073;SDS011;8141;52.664;5.074;2023-06-14T11:58:57;4.10;;;1.80;;
16073;SDS011;8141;52.664;5.074;2023-06-14T12:01:23;6.43;;;1.53;;
16073;SDS011;8141;52.664;5.074;2023-06-14T12:03:50;2.00;;;1.80;;
16073;SDS011;8141;52.664;5.074;2023-06-14T12:06:28;4.17;;;1.87;;
16073;SDS011;8141;52.664;5.074;2023-06-14T12:08:58;7.03;;;2.07;;
16073;SDS011;8141;52.664;5.074;2023-06-14T12:11:24;4.53;;;1.43;;
16073;SDS011;8141;52.664;5.074;2023-06-14T12:13:58;4.43;;;1.90;;
16073;SDS011;8141;52.664;5.074;2023-06-14T12:16:29;2.67;;;1.60;;
16073;SDS011;8141;52.664;5.074;2023-06-14T12:19:01;2.67;;;1.50;;
16073;SDS011;8141;52.664;5.074;2023-06-14T12:21:38;4.33;;;1.73;;
16073;SDS011;8141;52.664;5.074;2023-06-14T12:24:05;1.73;;;1.60;;
16073;SDS011;8141;52.664;5.074;2023-06-14T12:26:32;3.97;;;1.50;;
16073;SDS011;8141;52.664;5.074;2023-06-14T12:28:58;2.67;;;1.50;;
16073;SDS011;8141;52.664;5.074;2023-06-14T12:31:24;7.30;;;1.40;;
16073;SDS011;8141;52.664;5.074;2023-06-14T12:33:51;4.83;;;1.50;;
16073;SDS011;8141;52.664;5.074;2023-06-14T12:36:17;5.50;;;1.73;;
16073;SDS011;8141;52.664;5.074;2023-06-14T12:38:44;5.00;;;1.60;;
16073;SDS011;8141;52.664;5.074;2023-06-14T12:41:11;7.23;;;1.63;;
16073;SDS011;8141;52.664;5.074;2023-06-14T12:43:37;6.30;;;1.60;;
16073;SDS011;8141;52.664;5.074;2023-06-14T12:46:03;3.20;;;1.60;;
16073;SDS011;8141;52.664;5.074;2023-06-14T12:48:28;4.27;;;1.60;;
16073;SDS011;8141;52.664;5.074;2023-06-14T12:50:57;2.87;;;1.80;;
16073;SDS011;8141;52.664;5.074;2023-06-14T12:53:23;3.37;;;1.87;;
16073;SDS011;8141;52.664;5.074;2023-06-14T12:55:49;3.40;;;1.83;;
16073;SDS011;8141;52.664;5.074;2023-06-14T12:58:15;1.83;;;1.40;;
16073;SDS011;8141;52.664;5.074;2023-06-14T13:00:42;5.27;;;1.40;;
16073;SDS011;8141;52.664;5.074;2023-06-14T13:03:10;4.13;;;1.60;;
16073;SDS011;8141;52.664;5.074;2023-06-14T13:05:36;5.33;;;1.70;;
16073;SDS011;8141;52.664;5.074;2023-06-14T13:08:06;1.47;;;1.23;;
16073;SDS011;8141;52.664;5.074;2023-06-14T13:10:36;3.53;;;1.40;;
16073;SDS011;8141;52.664;5.074;2023-06-14T13:13:01;1.93;;;1.40;;
16073;SDS011;8141;52.664;5.074;2023-06-14T13:15:27;6.07;;;1.50;;
16073;SDS011;8141;52.664;5.074;2023-06-14T13:17:53;2.80;;;1.40;;
16073;SDS011;8141;52.664;5.074;2023-06-14T13:20:20;4.67;;;1.40;;
16073;SDS011;8141;52.664;5.074;2023-06-14T13:22:46;3.67;;;1.53;;
16073;SDS011;8141;52.664;5.074;2023-06-14T13:25:12;3.93;;;1.90;;
16073;SDS011;8141;52.664;5.074;2023-06-14T13:27:38;5.10;;;1.30;;
16073;SDS011;8141;52.664;5.074;2023-06-14T13:30:04;5.00;;;1.20;;
16073;SDS011;8141;52.664;5.074;2023-06-14T13:32:30;2.00;;;1.20;;
16073;SDS011;8141;52.664;5.074;2023-06-14T13:34:56;3.73;;;1.57;;
16073;SDS011;8141;52.664;5.074;2023-06-14T13:37:22;7.77;;;1.70;;
16073;SDS011;8141;52.664;5.074;2023-06-14T13:39:48;4.60;;;1.30;;
16073;SDS011;8141;52.664;5.074;2023-06-14T13:42:14;1.77;;;1.30;;
16073;SDS011;8141;52.664;5.074;2023-06-14T13:44:40;2.17;;;1.40;;
16073;SDS011;8141;52.664;5.074;2023-06-14T13:47:06;6.10;;;1.47;;
16073;SDS011;8141;52.664;5.074;2023-06-14T13:49:32;32.27;;;3.33;;
16073;SDS011;8141;52.664;5.074;2023-06-14T13:52:00;4.83;;;1.50;;
16073;SDS011;8141;52.664;5.074;2023-06-14T13:54:26;5.30;;;1.50;;
16073;SDS011;8141;52.664;5.074;2023-06-14T13:56:52;5.77;;;1.60;;
16073;SDS011;8141;52.664;5.074;2023-06-14T13:59:18;4.57;;;1.70;;
16073;SDS011;8141;52.664;5.074;2023-06-14T14:01:43;7.50;;;1.50;;
16073;SDS011;8141;52.664;5.074;2023-06-14T14:04:09;6.80;;;1.70;;
16073;SDS011;8141;52.664;5.074;2023-06-14T14:06:36;5.53;;;1.30;;
16073;SDS011;8141;52.664;5.074;2023-06-14T14:09:02;9.80;;;1.73;;
16073;SDS011;8141;52.664;5.074;2023-06-14T14:11:28;5.90;;;1.20;;
16073;SDS011;8141;52.664;5.074;2023-06-14T14:13:58;2.40;;;1.43;;
16073;SDS011;8141;52.664;5.074;2023-06-14T14:16:24;3.73;;;1.57;;
16073;SDS011;8141;52.664;5.074;2023-06-14T14:18:50;2.40;;;1.33;;
16073;SDS011;8141;52.664;5.074;2023-06-14T14:21:15;2.57;;;1.10;;
16073;SDS011;8141;52.664;5.074;2023-06-14T14:23:41;5.37;;;1.50;;
16073;SDS011;8141;52.664;5.074;2023-06-14T14:26:07;6.63;;;1.57;;
16073;SDS011;8141;52.664;5.074;2023-06-14T14:28:33;4.20;;;1.77;;
16073;SDS011;8141;52.664;5.074;2023-06-14T14:30:58;5.10;;;1.37;;
16073;SDS011;8141;52.664;5.074;2023-06-14T14:33:24;2.30;;;1.87;;
16073;SDS011;8141;52.664;5.074;2023-06-14T14:35:50;2.40;;;1.57;;
16073;SDS011;8141;52.664;5.074;2023-06-14T14:38:16;3.40;;;1.40;;
16073;SDS011;8141;52.664;5.074;2023-06-14T14:40:42;3.37;;;1.50;;
16073;SDS011;8141;52.664;5.074;2023-06-14T14:43:09;2.40;;;1.53;;
16073;SDS011;8141;52.664;5.074;2023-06-14T14:45:35;3.63;;;1.90;;
16073;SDS011;8141;52.664;5.074;2023-06-14T14:48:01;4.30;;;1.90;;
16073;SDS011;8141;52.664;5.074;2023-06-14T14:50:28;4.60;;;1.73;;
16073;SDS011;8141;52.664;5.074;2023-06-14T14:52:54;5.07;;;1.50;;
16073;SDS011;8141;52.664;5.074;2023-06-14T14:55:21;5.70;;;1.50;;
16073;SDS011;8141;52.664;5.074;2023-06-14T14:57:47;3.27;;;1.90;;
16073;SDS011;8141;52.664;5.074;2023-06-14T15:00:13;6.77;;;1.60;;
16073;SDS011;8141;52.664;5.074;2023-06-14T15:02:39;3.47;;;1.73;;
16073;SDS011;8141;52.664;5.074;2023-06-14T15:05:05;1.67;;;1.43;;
16073;SDS011;8141;52.664;5.074;2023-06-14T15:07:31;4.87;;;1.80;;
16073;SDS011;8141;52.664;5.074;2023-06-14T15:09:59;5.13;;;1.73;;
16073;SDS011;8141;52.664;5.074;2023-06-14T15:12:25;4.37;;;1.73;;
16073;SDS011;8141;52.664;5.074;2023-06-14T15:14:51;2.67;;;1.60;;
16073;SDS011;8141;52.664;5.074;2023-06-14T15:17:18;4.20;;;1.60;;
16073;SDS011;8141;52.664;5.074;2023-06-14T15:19:45;3.77;;;1.37;;
16073;SDS011;8141;52.664;5.074;2023-06-14T15:22:12;5.03;;;1.40;;
16073;SDS011;8141;52.664;5.074;2023-06-14T15:24:40;2.80;;;1.60;;
16073;SDS011;8141;52.664;5.074;2023-06-14T15:27:06;6.03;;;1.50;;
16073;SDS011;8141;52.664;5.074;2023-06-14T15:29:32;4.27;;;1.80;;
16073;SDS011;8141;52.664;5.074;2023-06-14T15:31:58;3.33;;;1.70;;